sensor_id;sensor_type;location;lat;lon;timestamp;temperature;humidity
9237;DHT22;24579;42.810;23.214;2022-10-04T00:01:44;8.70;99.90
9237;DHT22;24579;42.810;23.214;2022-10-04T00:04:15;8.80;99.90
9237;DHT22;24579;42.810;23.214;2022-10-04T00:06:46;8.90;99.90
9237;DHT22;24579;42.810;23.214;2022-10-04T00:09:19;9.00;99.90
9237;DHT22;24579;42.810;23.214;2022-10-04T00:11:51;9.00;99.90
9237;DHT22;24579;42.810;23.214;2022-10-04T00:14:22;8.90;99.90
9237;DHT22;24579;42.810;23.214;2022-10-04T00:16:52;9.00;99.90
9237;DHT22;24579;42.810;23.214;2022-10-04T00:19:39;9.00;99.90
9237;DHT22;24579;42.810;23.214;2022-10-04T00:22:18;8.90;99.90
9237;DHT22;24579;42.810;23.214;2022-10-04T00:33:57;8.60;99.90
9237;DHT22;24579;42.810;23.214;2022-10-04T00:36:52;8.60;99.90
9237;DHT22;24579;42.810;23.214;2022-10-04T00:39:36;8.70;99.90
9237;DHT22;24579;42.810;23.214;2022-10-04T00:42:30;8.70;99.90
9237;DHT22;24579;42.810;23.214;2022-10-04T00:45:01;8.70;99.90
9237;DHT22;24579;42.810;23.214;2022-10-04T00:47:33;8.70;99.90
9237;DHT22;24579;42.810;23.214;2022-10-04T00:50:10;8.70;99.90
9237;DHT22;24579;42.810;23.214;2022-10-04T00:52:44;8.70;99.90
9237;DHT22;24579;42.810;23.214;2022-10-04T00:55:21;8.70;99.90
9237;DHT22;24579;42.810;23.214;2022-10-04T00:57:55;8.70;99.90
9237;DHT22;24579;42.810;23.214;2022-10-04T01:00:25;8.80;99.90
9237;DHT22;24579;42.810;23.214;2022-10-04T01:02:55;8.80;99.90
9237;DHT22;24579;42.810;23.214;2022-10-04T01:05:30;8.80;99.90
9237;DHT22;24579;42.810;23.214;2022-10-04T01:08:03;8.80;99.90
9237;DHT22;24579;42.810;23.214;2022-10-04T01:10:35;8.80;99.90
9237;DHT22;24579;42.810;23.214;2022-10-04T01:13:08;8.80;99.90
9237;DHT22;24579;42.810;23.214;2022-10-04T01:15:41;8.80;99.90
9237;DHT22;24579;42.810;23.214;2022-10-04T01:18:12;8.80;99.90
9237;DHT22;24579;42.810;23.214;2022-10-04T01:20:52;8.80;99.90
9237;DHT22;24579;42.810;23.214;2022-10-04T01:23:43;8.70;99.90
9237;DHT22;24579;42.810;23.214;2022-10-04T01:26:39;8.60;99.90
9237;DHT22;24579;42.810;23.214;2022-10-04T01:29:10;8.60;99.90
9237;DHT22;24579;42.810;23.214;2022-10-04T01:31:40;8.60;99.90
9237;DHT22;24579;42.810;23.214;2022-10-04T01:34:09;8.60;99.90
9237;DHT22;24579;42.810;23.214;2022-10-04T01:36:38;8.60;99.90
9237;DHT22;24579;42.810;23.214;2022-10-04T01:39:06;8.50;99.90
9237;DHT22;24579;42.810;23.214;2022-10-04T01:41:40;8.60;99.90
9237;DHT22;24579;42.810;23.214;2022-10-04T01:44:13;8.50;99.90
9237;DHT22;24579;42.810;23.214;2022-10-04T01:46:45;8.40;99.90
9237;DHT22;24579;42.810;23.214;2022-10-04T01:49:16;8.40;99.90
9237;DHT22;24579;42.810;23.214;2022-10-04T01:51:48;8.40;99.90
9237;DHT22;24579;42.810;23.214;2022-10-04T01:54:28;8.50;99.90
9237;DHT22;24579;42.810;23.214;2022-10-04T01:56:58;8.50;99.90
9237;DHT22;24579;42.810;23.214;2022-10-04T01:59:28;8.50;99.90
9237;DHT22;24579;42.810;23.214;2022-10-04T02:02:00;8.60;99.90
9237;DHT22;24579;42.810;23.214;2022-10-04T02:04:31;8.60;99.90
9237;DHT22;24579;42.810;23.214;2022-10-04T02:07:00;8.60;99.90
9237;DHT22;24579;42.810;23.214;2022-10-04T02:09:32;8.60;99.90
9237;DHT22;24579;42.810;23.214;2022-10-04T02:12:01;8.60;99.90
9237;DHT22;24579;42.810;23.214;2022-10-04T02:14:31;8.50;99.90
9237;DHT22;24579;42.810;23.214;2022-10-04T02:16:59;8.40;99.90
9237;DHT22;24579;42.810;23.214;2022-10-04T02:19:32;8.30;99.90
9237;DHT22;24579;42.810;23.214;2022-10-04T02:22:01;8.30;99.90
9237;DHT22;24579;42.810;23.214;2022-10-04T02:24:33;8.20;99.90
9237;DHT22;24579;42.810;23.214;2022-10-04T02:27:01;8.30;99.90
9237;DHT22;24579;42.810;23.214;2022-10-04T02:29:29;8.30;99.90
9237;DHT22;24579;42.810;23.214;2022-10-04T02:31:56;8.40;99.90
9237;DHT22;24579;42.810;23.214;2022-10-04T02:34:40;8.50;99.90
9237;DHT22;24579;42.810;23.214;2022-10-04T02:37:07;8.50;99.90
9237;DHT22;24579;42.810;23.214;2022-10-04T02:39:41;8.50;99.90
9237;DHT22;24579;42.810;23.214;2022-10-04T02:42:13;8.60;99.90
9237;DHT22;24579;42.810;23.214;2022-10-04T02:44:45;8.70;99.90
9237;DHT22;24579;42.810;23.214;2022-10-04T02:47:18;8.70;99.90
9237;DHT22;24579;42.810;23.214;2022-10-04T02:49:48;8.70;99.90
9237;DHT22;24579;42.810;23.214;2022-10-04T02:52:20;8.70;99.90
9237;DHT22;24579;42.810;23.214;2022-10-04T02:54:58;8.70;99.90
9237;DHT22;24579;42.810;23.214;2022-10-04T02:57:28;8.70;99.90
9237;DHT22;24579;42.810;23.214;2022-10-04T03:00:06;8.70;99.90
9237;DHT22;24579;42.810;23.214;2022-10-04T03:02:35;8.70;99.90
9237;DHT22;24579;42.810;23.214;2022-10-04T03:05:05;8.80;99.90
9237;DHT22;24579;42.810;23.214;2022-10-04T03:07:35;8.80;99.90
9237;DHT22;24579;42.810;23.214;2022-10-04T03:10:05;8.80;99.90
9237;DHT22;24579;42.810;23.214;2022-10-04T03:12:34;8.80;99.90
9237;DHT22;24579;42.810;23.214;2022-10-04T03:15:06;8.70;99.90
9237;DHT22;24579;42.810;23.214;2022-10-04T03:17:34;8.70;99.90
9237;DHT22;24579;42.810;23.214;2022-10-04T03:20:02;8.60;99.90
9237;DHT22;24579;42.810;23.214;2022-10-04T03:22:29;8.60;99.90
9237;DHT22;24579;42.810;23.214;2022-10-04T03:24:57;8.70;99.90
9237;DHT22;24579;42.810;23.214;2022-10-04T03:27:28;8.60;99.90
9237;DHT22;24579;42.810;23.214;2022-10-04T03:29:58;8.70;99.90
9237;DHT22;24579;42.810;23.214;2022-10-04T03:32:27;8.60;99.90
9237;DHT22;24579;42.810;23.214;2022-10-04T03:34:56;8.60;99.90
9237;DHT22;24579;42.810;23.214;2022-10-04T03:37:24;8.50;99.90
9237;DHT22;24579;42.810;23.214;2022-10-04T03:39:54;8.50;99.90
9237;DHT22;24579;42.810;23.214;2022-10-04T03:42:25;8.50;99.90
9237;DHT22;24579;42.810;23.214;2022-10-04T03:44:58;8.50;99.90
9237;DHT22;24579;42.810;23.214;2022-10-04T03:47:28;8.40;99.90
9237;DHT22;24579;42.810;23.214;2022-10-04T03:50:00;8.40;99.90
9237;DHT22;24579;42.810;23.214;2022-10-04T03:52:35;8.30;99.90
9237;DHT22;24579;42.810;23.214;2022-10-04T03:55:05;8.30;99.90
9237;DHT22;24579;42.810;23.214;2022-10-04T03:57:36;8.30;99.90
9237;DHT22;24579;42.810;23.214;2022-10-04T04:00:04;8.30;99.90
9237;DHT22;24579;42.810;23.214;2022-10-04T04:02:50;8.20;99.90
9237;DHT22;24579;42.810;23.214;2022-10-04T04:05:21;8.10;99.90
9237;DHT22;24579;42.810;23.214;2022-10-04T04:07:56;8.10;99.90
9237;DHT22;24579;42.810;23.214;2022-10-04T04:10:28;8.10;99.90
9237;DHT22;24579;42.810;23.214;2022-10-04T04:13:00;8.10;99.90
9237;DHT22;24579;42.810;23.214;2022-10-04T04:15:29;8.10;99.90
9237;DHT22;24579;42.810;23.214;2022-10-04T04:17:59;8.10;99.90
9237;DHT22;24579;42.810;23.214;2022-10-04T04:20:30;8.10;99.90
9237;DHT22;24579;42.810;23.214;2022-10-04T04:23:01;8.10;99.90
9237;DHT22;24579;42.810;23.214;2022-10-04T04:25:32;8.10;99.90
9237;DHT22;24579;42.810;23.214;2022-10-04T04:28:10;8.10;99.90
9237;DHT22;24579;42.810;23.214;2022-10-04T04:30:43;8.00;99.90
9237;DHT22;24579;42.810;23.214;2022-10-04T04:33:25;7.90;99.90
9237;DHT22;24579;42.810;23.214;2022-10-04T04:35:55;8.00;99.90
9237;DHT22;24579;42.810;23.214;2022-10-04T04:38:28;7.90;99.90
9237;DHT22;24579;42.810;23.214;2022-10-04T04:40:56;7.90;99.90
9237;DHT22;24579;42.810;23.214;2022-10-04T04:43:35;7.90;99.90
9237;DHT22;24579;42.810;23.214;2022-10-04T04:46:07;7.90;99.90
9237;DHT22;24579;42.810;23.214;2022-10-04T04:48:36;7.90;99.90
9237;DHT22;24579;42.810;23.214;2022-10-04T04:51:04;8.00;99.90
9237;DHT22;24579;42.810;23.214;2022-10-04T04:53:31;8.00;99.90
9237;DHT22;24579;42.810;23.214;2022-10-04T04:56:00;8.10;99.90
9237;DHT22;24579;42.810;23.214;2022-10-04T04:58:30;8.10;99.90
9237;DHT22;24579;42.810;23.214;2022-10-04T05:01:03;8.10;99.90
9237;DHT22;24579;42.810;23.214;2022-10-04T05:03:31;8.20;99.90
9237;DHT22;24579;42.810;23.214;2022-10-04T05:05:59;8.10;99.90
9237;DHT22;24579;42.810;23.214;2022-10-04T05:08:28;8.10;99.90
9237;DHT22;24579;42.810;23.214;2022-10-04T05:11:02;8.20;99.90
9237;DHT22;24579;42.810;23.214;2022-10-04T05:13:33;8.30;99.90
9237;DHT22;24579;42.810;23.214;2022-10-04T05:16:09;8.40;99.90
9237;DHT22;24579;42.810;23.214;2022-10-04T05:18:38;8.50;99.90
9237;DHT22;24579;42.810;23.214;2022-10-04T05:21:09;8.60;99.90
9237;DHT22;24579;42.810;23.214;2022-10-04T05:23:37;8.70;99.90
9237;DHT22;24579;42.810;23.214;2022-10-04T05:26:09;8.80;99.90
9237;DHT22;24579;42.810;23.214;2022-10-04T05:28:37;9.00;99.90
9237;DHT22;24579;42.810;23.214;2022-10-04T05:31:22;9.10;99.90
9237;DHT22;24579;42.810;23.214;2022-10-04T05:33:55;9.20;99.90
9237;DHT22;24579;42.810;23.214;2022-10-04T05:36:46;9.30;99.90
9237;DHT22;24579;42.810;23.214;2022-10-04T05:39:22;9.40;99.90
9237;DHT22;24579;42.810;23.214;2022-10-04T05:41:55;9.50;99.90
9237;DHT22;24579;42.810;23.214;2022-10-04T05:44:25;9.60;99.90
9237;DHT22;24579;42.810;23.214;2022-10-04T05:46:56;9.80;99.90
9237;DHT22;24579;42.810;23.214;2022-10-04T05:49:24;9.90;99.90
9237;DHT22;24579;42.810;23.214;2022-10-04T05:51:57;10.00;99.90
9237;DHT22;24579;42.810;23.214;2022-10-04T05:54:28;10.20;99.90
9237;DHT22;24579;42.810;23.214;2022-10-04T05:57:31;10.20;99.90
9237;DHT22;24579;42.810;23.214;2022-10-04T06:00:09;10.30;99.90
9237;DHT22;24579;42.810;23.214;2022-10-04T06:03:06;10.30;99.90
9237;DHT22;24579;42.810;23.214;2022-10-04T06:05:43;10.40;99.90
9237;DHT22;24579;42.810;23.214;2022-10-04T06:08:23;10.60;99.90
9237;DHT22;24579;42.810;23.214;2022-10-04T06:14:09;10.90;99.90
9237;DHT22;24579;42.810;23.214;2022-10-04T06:16:48;10.90;99.90
9237;DHT22;24579;42.810;23.214;2022-10-04T06:19:53;10.80;99.90
9237;DHT22;24579;42.810;23.214;2022-10-04T06:22:22;10.80;99.90
9237;DHT22;24579;42.810;23.214;2022-10-04T06:24:54;11.00;99.90
9237;DHT22;24579;42.810;23.214;2022-10-04T06:27:26;11.20;99.90
9237;DHT22;24579;42.810;23.214;2022-10-04T06:29:58;11.20;99.90
9237;DHT22;24579;42.810;23.214;2022-10-04T06:35:54;11.60;99.90
9237;DHT22;24579;42.810;23.214;2022-10-04T06:39:07;11.40;99.90
9237;DHT22;24579;42.810;23.214;2022-10-04T06:42:04;11.50;99.90
9237;DHT22;24579;42.810;23.214;2022-10-04T06:44:46;11.70;99.90
9237;DHT22;24579;42.810;23.214;2022-10-04T06:47:31;11.80;99.90
9237;DHT22;24579;42.810;23.214;2022-10-04T06:50:15;12.10;99.90
9237;DHT22;24579;42.810;23.214;2022-10-04T06:53:03;12.10;99.90
9237;DHT22;24579;42.810;23.214;2022-10-04T06:58:57;12.60;99.90
9237;DHT22;24579;42.810;23.214;2022-10-04T07:01:29;12.60;99.90
9237;DHT22;24579;42.810;23.214;2022-10-04T07:04:05;12.70;99.90
9237;DHT22;24579;42.810;23.214;2022-10-04T07:06:41;12.70;99.90
9237;DHT22;24579;42.810;23.214;2022-10-04T07:09:18;12.80;99.90
9237;DHT22;24579;42.810;23.214;2022-10-04T07:11:52;13.00;99.90
9237;DHT22;24579;42.810;23.214;2022-10-04T07:14:24;13.00;99.90
9237;DHT22;24579;42.810;23.214;2022-10-04T07:16:57;13.10;99.90
9237;DHT22;24579;42.810;23.214;2022-10-04T07:19:35;13.10;99.90
9237;DHT22;24579;42.810;23.214;2022-10-04T07:22:12;13.20;99.90
9237;DHT22;24579;42.810;23.214;2022-10-04T07:25:01;13.30;99.90
9237;DHT22;24579;42.810;23.214;2022-10-04T07:27:32;13.50;99.90
9237;DHT22;24579;42.810;23.214;2022-10-04T07:30:03;13.40;99.90
9237;DHT22;24579;42.810;23.214;2022-10-04T07:32:33;13.50;99.80
9237;DHT22;24579;42.810;23.214;2022-10-04T07:35:11;13.20;99.50
9237;DHT22;24579;42.810;23.214;2022-10-04T07:37:47;12.70;99.30
9237;DHT22;24579;42.810;23.214;2022-10-04T07:40:21;12.40;99.40
9237;DHT22;24579;42.810;23.214;2022-10-04T07:42:53;12.20;99.90
9237;DHT22;24579;42.810;23.214;2022-10-04T07:45:26;12.70;99.90
9237;DHT22;24579;42.810;23.214;2022-10-04T07:48:01;13.10;99.90
9237;DHT22;24579;42.810;23.214;2022-10-04T07:50:33;13.60;99.50
9237;DHT22;24579;42.810;23.214;2022-10-04T07:53:04;13.90;97.60
9237;DHT22;24579;42.810;23.214;2022-10-04T07:55:45;14.00;96.70
9237;DHT22;24579;42.810;23.214;2022-10-04T07:58:25;14.30;96.90
9237;DHT22;24579;42.810;23.214;2022-10-04T08:00:58;14.50;96.20
9237;DHT22;24579;42.810;23.214;2022-10-04T08:03:39;14.80;95.50
9237;DHT22;24579;42.810;23.214;2022-10-04T08:06:12;14.70;93.70
9237;DHT22;24579;42.810;23.214;2022-10-04T08:08:59;14.90;93.90
9237;DHT22;24579;42.810;23.214;2022-10-04T08:11:37;14.60;93.20
9237;DHT22;24579;42.810;23.214;2022-10-04T08:14:15;14.50;93.40
9237;DHT22;24579;42.810;23.214;2022-10-04T08:16:52;14.10;94.50
9237;DHT22;24579;42.810;23.214;2022-10-04T08:19:32;14.60;94.60
9237;DHT22;24579;42.810;23.214;2022-10-04T08:22:07;14.50;93.20
9237;DHT22;24579;42.810;23.214;2022-10-04T08:24:52;14.20;93.50
9237;DHT22;24579;42.810;23.214;2022-10-04T08:27:42;14.00;92.80
9237;DHT22;24579;42.810;23.214;2022-10-04T08:30:44;13.60;93.50
9237;DHT22;24579;42.810;23.214;2022-10-04T08:33:22;13.70;94.10
9237;DHT22;24579;42.810;23.214;2022-10-04T08:36:01;13.50;93.80
9237;DHT22;24579;42.810;23.214;2022-10-04T08:38:40;13.40;94.60
9237;DHT22;24579;42.810;23.214;2022-10-04T08:56:42;15.50;90.80
9237;DHT22;24579;42.810;23.214;2022-10-04T08:59:46;14.90;90.00
9237;DHT22;24579;42.810;23.214;2022-10-04T09:02:46;14.80;91.00
9237;DHT22;24579;42.810;23.214;2022-10-04T09:05:45;15.10;91.20
9237;DHT22;24579;42.810;23.214;2022-10-04T09:11:40;15.70;89.10
9237;DHT22;24579;42.810;23.214;2022-10-04T09:14:28;16.00;88.50
9237;DHT22;24579;42.810;23.214;2022-10-04T09:17:14;16.20;87.30
9237;DHT22;24579;42.810;23.214;2022-10-04T09:19:54;16.10;87.60
9237;DHT22;24579;42.810;23.214;2022-10-04T09:22:43;16.00;88.30
9237;DHT22;24579;42.810;23.214;2022-10-04T09:28:37;15.60;89.80
9237;DHT22;24579;42.810;23.214;2022-10-04T09:34:37;17.00;88.70
9237;DHT22;24579;42.810;23.214;2022-10-04T09:37:18;17.40;84.70
9237;DHT22;24579;42.810;23.214;2022-10-04T09:43:10;15.70;83.60
9237;DHT22;24579;42.810;23.214;2022-10-04T09:46:08;14.60;87.70
9237;DHT22;24579;42.810;23.214;2022-10-04T09:48:49;14.50;89.80
9237;DHT22;24579;42.810;23.214;2022-10-04T09:51:48;14.30;90.10
9237;DHT22;24579;42.810;23.214;2022-10-04T09:57:28;14.10;90.10
9237;DHT22;24579;42.810;23.214;2022-10-04T10:00:10;14.20;90.00
9237;DHT22;24579;42.810;23.214;2022-10-04T10:03:05;14.30;90.10
9237;DHT22;24579;42.810;23.214;2022-10-04T10:08:45;15.10;90.10
9237;DHT22;24579;42.810;23.214;2022-10-04T10:11:20;15.30;87.10
9237;DHT22;24579;42.810;23.214;2022-10-04T10:14:30;16.00;88.00
9237;DHT22;24579;42.810;23.214;2022-10-04T10:17:07;16.00;86.90
9237;DHT22;24579;42.810;23.214;2022-10-04T10:20:02;16.60;82.70
9237;DHT22;24579;42.810;23.214;2022-10-04T10:25:56;15.10;84.70
9237;DHT22;24579;42.810;23.214;2022-10-04T10:28:45;14.80;86.40
9237;DHT22;24579;42.810;23.214;2022-10-04T10:31:30;14.40;88.70
9237;DHT22;24579;42.810;23.214;2022-10-04T10:34:34;14.30;89.60
9237;DHT22;24579;42.810;23.214;2022-10-04T10:37:09;14.30;88.80
9237;DHT22;24579;42.810;23.214;2022-10-04T10:39:56;14.60;90.00
9237;DHT22;24579;42.810;23.214;2022-10-04T10:42:42;15.40;89.30
9237;DHT22;24579;42.810;23.214;2022-10-04T10:45:45;16.30;87.40
9237;DHT22;24579;42.810;23.214;2022-10-04T10:48:15;16.20;86.40
9237;DHT22;24579;42.810;23.214;2022-10-04T10:50:59;16.10;83.30
9237;DHT22;24579;42.810;23.214;2022-10-04T10:56:39;17.20;83.40
9237;DHT22;24579;42.810;23.214;2022-10-04T11:02:56;17.40;83.90
9237;DHT22;24579;42.810;23.214;2022-10-04T11:14:53;17.90;75.80
9237;DHT22;24579;42.810;23.214;2022-10-04T11:17:39;16.50;80.30
9237;DHT22;24579;42.810;23.214;2022-10-04T11:23:54;18.30;78.10
9237;DHT22;24579;42.810;23.214;2022-10-04T11:26:57;18.40;77.10
9237;DHT22;24579;42.810;23.214;2022-10-04T11:29:36;17.80;74.80
9237;DHT22;24579;42.810;23.214;2022-10-04T11:38:25;18.40;73.60
9237;DHT22;24579;42.810;23.214;2022-10-04T11:41:07;18.40;73.10
9237;DHT22;24579;42.810;23.214;2022-10-04T11:46:49;19.00;70.10
9237;DHT22;24579;42.810;23.214;2022-10-04T11:49:32;18.50;70.30
9237;DHT22;24579;42.810;23.214;2022-10-04T11:55:23;18.40;70.40
9237;DHT22;24579;42.810;23.214;2022-10-04T11:57:58;19.60;71.50
9237;DHT22;24579;42.810;23.214;2022-10-04T12:00:47;19.30;68.70
9237;DHT22;24579;42.810;23.214;2022-10-04T12:03:34;18.30;69.40
9237;DHT22;24579;42.810;23.214;2022-10-04T12:06:17;18.70;70.00
9237;DHT22;24579;42.810;23.214;2022-10-04T12:08:57;17.70;69.40
9237;DHT22;24579;42.810;23.214;2022-10-04T12:21:15;19.50;68.10
9237;DHT22;24579;42.810;23.214;2022-10-04T12:27:06;20.10;64.30
9237;DHT22;24579;42.810;23.214;2022-10-04T12:30:21;19.10;64.60
9237;DHT22;24579;42.810;23.214;2022-10-04T12:33:05;19.60;66.10
9237;DHT22;24579;42.810;23.214;2022-10-04T12:35:57;19.10;62.90
9237;DHT22;24579;42.810;23.214;2022-10-04T12:38:42;19.40;66.90
9237;DHT22;24579;42.810;23.214;2022-10-04T12:41:23;19.50;66.90
9237;DHT22;24579;42.810;23.214;2022-10-04T12:44:02;19.20;65.70
9237;DHT22;24579;42.810;23.214;2022-10-04T12:46:42;18.50;67.30
9237;DHT22;24579;42.810;23.214;2022-10-04T12:49:22;19.50;67.90
9237;DHT22;24579;42.810;23.214;2022-10-04T12:52:00;18.40;64.80
9237;DHT22;24579;42.810;23.214;2022-10-04T12:54:37;18.10;65.70
9237;DHT22;24579;42.810;23.214;2022-10-04T12:57:18;18.30;68.10
9237;DHT22;24579;42.810;23.214;2022-10-04T12:59:55;19.50;66.00
9237;DHT22;24579;42.810;23.214;2022-10-04T13:02:37;18.80;65.50
9237;DHT22;24579;42.810;23.214;2022-10-04T13:05:15;19.00;65.70
9237;DHT22;24579;42.810;23.214;2022-10-04T13:14:16;19.30;64.10
9237;DHT22;24579;42.810;23.214;2022-10-04T13:16:49;19.60;62.30
9237;DHT22;24579;42.810;23.214;2022-10-04T13:19:23;18.00;63.40
9237;DHT22;24579;42.810;23.214;2022-10-04T13:22:20;17.90;66.90
9237;DHT22;24579;42.810;23.214;2022-10-04T13:24:59;17.40;67.30
9237;DHT22;24579;42.810;23.214;2022-10-04T13:27:32;17.40;67.10
9237;DHT22;24579;42.810;23.214;2022-10-04T13:30:16;17.30;68.90
9237;DHT22;24579;42.810;23.214;2022-10-04T13:32:51;17.30;68.80
9237;DHT22;24579;42.810;23.214;2022-10-04T13:35:24;17.40;69.30
9237;DHT22;24579;42.810;23.214;2022-10-04T13:38:25;17.40;69.50
9237;DHT22;24579;42.810;23.214;2022-10-04T13:41:07;18.10;70.00
9237;DHT22;24579;42.810;23.214;2022-10-04T13:43:52;18.40;67.10
9237;DHT22;24579;42.810;23.214;2022-10-04T13:46:30;18.20;65.30
9237;DHT22;24579;42.810;23.214;2022-10-04T13:49:22;17.90;66.70
9237;DHT22;24579;42.810;23.214;2022-10-04T13:52:03;16.80;67.30
9237;DHT22;24579;42.810;23.214;2022-10-04T13:55:00;16.90;69.40
9237;DHT22;24579;42.810;23.214;2022-10-04T13:57:54;16.70;69.50
9237;DHT22;24579;42.810;23.214;2022-10-04T14:00:38;18.20;67.30
9237;DHT22;24579;42.810;23.214;2022-10-04T14:03:25;17.70;66.90
9237;DHT22;24579;42.810;23.214;2022-10-04T14:15:36;16.20;71.00
9237;DHT22;24579;42.810;23.214;2022-10-04T14:24:27;16.10;73.20
9237;DHT22;24579;42.810;23.214;2022-10-04T14:30:20;15.50;75.50
9237;DHT22;24579;42.810;23.214;2022-10-04T14:39:27;15.50;77.60
9237;DHT22;24579;42.810;23.214;2022-10-04T14:42:26;15.60;77.90
9237;DHT22;24579;42.810;23.214;2022-10-04T14:45:18;16.10;76.20
9237;DHT22;24579;42.810;23.214;2022-10-04T14:48:23;16.00;76.80
9237;DHT22;24579;42.810;23.214;2022-10-04T14:51:09;15.20;76.50
9237;DHT22;24579;42.810;23.214;2022-10-04T14:53:48;14.90;79.10
9237;DHT22;24579;42.810;23.214;2022-10-04T14:56:41;15.00;79.80
9237;DHT22;24579;42.810;23.214;2022-10-04T14:59:28;14.70;79.60
9237;DHT22;24579;42.810;23.214;2022-10-04T15:02:22;14.40;80.70
9237;DHT22;24579;42.810;23.214;2022-10-04T15:05:29;14.40;82.10
9237;DHT22;24579;42.810;23.214;2022-10-04T15:08:26;14.40;82.20
9237;DHT22;24579;42.810;23.214;2022-10-04T15:11:03;14.20;83.40
9237;DHT22;24579;42.810;23.214;2022-10-04T15:13:34;14.20;83.60
9237;DHT22;24579;42.810;23.214;2022-10-04T15:16:09;14.10;84.10
9237;DHT22;24579;42.810;23.214;2022-10-04T15:18:57;14.10;84.30
9237;DHT22;24579;42.810;23.214;2022-10-04T15:21:47;14.10;85.10
9237;DHT22;24579;42.810;23.214;2022-10-04T15:24:24;14.20;85.10
9237;DHT22;24579;42.810;23.214;2022-10-04T15:27:21;14.10;85.20
9237;DHT22;24579;42.810;23.214;2022-10-04T15:30:00;14.00;86.40
9237;DHT22;24579;42.810;23.214;2022-10-04T15:32:35;13.80;86.90
9237;DHT22;24579;42.810;23.214;2022-10-04T15:35:19;13.70;88.40
9237;DHT22;24579;42.810;23.214;2022-10-04T15:37:54;13.70;89.10
9237;DHT22;24579;42.810;23.214;2022-10-04T15:40:29;13.50;89.40
9237;DHT22;24579;42.810;23.214;2022-10-04T15:43:14;13.50;90.00
9237;DHT22;24579;42.810;23.214;2022-10-04T15:51:58;13.60;90.10
9237;DHT22;24579;42.810;23.214;2022-10-04T15:55:08;13.40;90.10
9237;DHT22;24579;42.810;23.214;2022-10-04T15:57:56;13.30;90.20
9237;DHT22;24579;42.810;23.214;2022-10-04T16:00:28;13.20;90.50
9237;DHT22;24579;42.810;23.214;2022-10-04T16:03:15;13.10;90.80
9237;DHT22;24579;42.810;23.214;2022-10-04T16:05:58;13.30;91.30
9237;DHT22;24579;42.810;23.214;2022-10-04T16:08:48;13.10;91.10
9237;DHT22;24579;42.810;23.214;2022-10-04T16:11:43;13.00;91.30
9237;DHT22;24579;42.810;23.214;2022-10-04T16:14:32;13.00;91.70
9237;DHT22;24579;42.810;23.214;2022-10-04T16:17:23;13.00;92.00
9237;DHT22;24579;42.810;23.214;2022-10-04T16:20:11;12.90;92.40
9237;DHT22;24579;42.810;23.214;2022-10-04T16:23:25;13.00;92.70
9237;DHT22;24579;42.810;23.214;2022-10-04T16:25:55;13.00;93.00
9237;DHT22;24579;42.810;23.214;2022-10-04T16:31:39;12.80;93.70
9237;DHT22;24579;42.810;23.214;2022-10-04T16:34:20;12.70;93.90
9237;DHT22;24579;42.810;23.214;2022-10-04T16:36:53;12.90;94.50
9237;DHT22;24579;42.810;23.214;2022-10-04T16:39:35;12.80;94.50
9237;DHT22;24579;42.810;23.214;2022-10-04T16:42:26;12.80;94.70
9237;DHT22;24579;42.810;23.214;2022-10-04T16:44:58;12.80;94.90
9237;DHT22;24579;42.810;23.214;2022-10-04T16:47:30;12.70;95.60
9237;DHT22;24579;42.810;23.214;2022-10-04T16:50:00;12.60;95.60
9237;DHT22;24579;42.810;23.214;2022-10-04T16:52:46;12.80;96.10
9237;DHT22;24579;42.810;23.214;2022-10-04T16:55:45;12.50;96.20
9237;DHT22;24579;42.810;23.214;2022-10-04T16:58:41;12.30;97.00
9237;DHT22;24579;42.810;23.214;2022-10-04T17:07:21;12.80;97.50
9237;DHT22;24579;42.810;23.214;2022-10-04T17:09:54;12.70;97.10
9237;DHT22;24579;42.810;23.214;2022-10-04T17:12:32;12.90;97.60
9237;DHT22;24579;42.810;23.214;2022-10-04T17:18:14;13.00;96.90
9237;DHT22;24579;42.810;23.214;2022-10-04T17:20:50;13.10;97.20
9237;DHT22;24579;42.810;23.214;2022-10-04T17:23:47;13.00;97.00
9237;DHT22;24579;42.810;23.214;2022-10-04T17:26:30;12.80;97.10
9237;DHT22;24579;42.810;23.214;2022-10-04T17:29:20;12.60;97.70
9237;DHT22;24579;42.810;23.214;2022-10-04T17:31:57;12.40;98.00
9237;DHT22;24579;42.810;23.214;2022-10-04T17:34:34;12.30;98.30
9237;DHT22;24579;42.810;23.214;2022-10-04T17:37:14;12.20;98.80
9237;DHT22;24579;42.810;23.214;2022-10-04T17:39:47;12.10;99.50
9237;DHT22;24579;42.810;23.214;2022-10-04T17:42:28;12.10;99.90
9237;DHT22;24579;42.810;23.214;2022-10-04T17:45:18;12.00;99.90
9237;DHT22;24579;42.810;23.214;2022-10-04T17:47:56;11.90;99.90
9237;DHT22;24579;42.810;23.214;2022-10-04T17:50:49;11.90;99.90
9237;DHT22;24579;42.810;23.214;2022-10-04T17:53:41;11.80;99.90
9237;DHT22;24579;42.810;23.214;2022-10-04T17:56:31;11.60;99.90
9237;DHT22;24579;42.810;23.214;2022-10-04T17:59:07;11.50;99.90
9237;DHT22;24579;42.810;23.214;2022-10-04T18:01:41;11.60;99.90
9237;DHT22;24579;42.810;23.214;2022-10-04T18:04:17;11.60;99.90
9237;DHT22;24579;42.810;23.214;2022-10-04T18:06:49;11.70;99.90
9237;DHT22;24579;42.810;23.214;2022-10-04T18:09:21;11.80;99.90
9237;DHT22;24579;42.810;23.214;2022-10-04T18:11:52;11.90;99.90
9237;DHT22;24579;42.810;23.214;2022-10-04T18:14:44;11.80;99.90
9237;DHT22;24579;42.810;23.214;2022-10-04T18:17:25;11.60;99.90
9237;DHT22;24579;42.810;23.214;2022-10-04T18:20:17;11.70;99.90
9237;DHT22;24579;42.810;23.214;2022-10-04T18:22:46;11.60;99.90
9237;DHT22;24579;42.810;23.214;2022-10-04T18:25:15;11.50;99.90
9237;DHT22;24579;42.810;23.214;2022-10-04T18:27:49;11.60;99.90
9237;DHT22;24579;42.810;23.214;2022-10-04T18:30:18;11.60;99.90
9237;DHT22;24579;42.810;23.214;2022-10-04T18:32:46;11.40;99.90
9237;DHT22;24579;42.810;23.214;2022-10-04T18:35:23;11.30;99.90
9237;DHT22;24579;42.810;23.214;2022-10-04T18:37:52;11.30;99.90
9237;DHT22;24579;42.810;23.214;2022-10-04T18:40:21;11.50;99.90
9237;DHT22;24579;42.810;23.214;2022-10-04T18:42:51;11.40;99.90
9237;DHT22;24579;42.810;23.214;2022-10-04T18:45:22;11.30;99.90
9237;DHT22;24579;42.810;23.214;2022-10-04T18:47:51;11.30;99.90
9237;DHT22;24579;42.810;23.214;2022-10-04T18:50:32;11.10;99.90
9237;DHT22;24579;42.810;23.214;2022-10-04T18:53:20;11.30;99.90
9237;DHT22;24579;42.810;23.214;2022-10-04T18:55:57;11.50;99.90
9237;DHT22;24579;42.810;23.214;2022-10-04T18:58:39;11.40;99.90
9237;DHT22;24579;42.810;23.214;2022-10-04T19:01:41;11.30;99.90
9237;DHT22;24579;42.810;23.214;2022-10-04T19:04:32;11.40;99.90
9237;DHT22;24579;42.810;23.214;2022-10-04T19:07:09;11.30;99.90
9237;DHT22;24579;42.810;23.214;2022-10-04T19:10:00;11.30;99.90
9237;DHT22;24579;42.810;23.214;2022-10-04T19:12:34;11.10;99.90
9237;DHT22;24579;42.810;23.214;2022-10-04T19:15:09;10.70;99.90
9237;DHT22;24579;42.810;23.214;2022-10-04T19:17:47;10.70;99.90
9237;DHT22;24579;42.810;23.214;2022-10-04T19:20:20;10.90;99.90